Time;durP1;ratioP1;P1;durP2;ratioP2;P2;SDS_P1;SDS_P2;PMS_P1;PMS_P2;Temp;Humidity;BMP_temperature;BMP_pressure;BME280_temperature;BME280_humidity;BME280_pressure;Samples;Min_cycle;Max_cycle;Signal;HPM_P1;HPM_P2
2022/06/13 00:01:41;;;;;;;12.88;5.20;;;14.20;99.90;;;;;;6372668;27;20047;-86
2022/06/13 00:04:43;;;;;;;17.73;5.25;;;14.30;99.90;;;;;;6358365;27;20048;-88
2022/06/13 00:07:46;;;;;;;14.00;4.93;;;14.30;99.90;;;;;;6355322;27;20090;-87
2022/06/13 00:10:48;;;;;;;15.60;5.13;;;14.30;99.90;;;;;;6333489;28;20047;-88
2022/06/13 00:13:57;;;;;;;14.93;4.90;;;14.20;99.90;;;;;;6345119;28;20124;-88
2022/06/13 00:17:01;;;;;;;18.25;5.53;;;14.20;99.90;;;;;;6363074;27;20522;-88
2022/06/13 00:20:04;;;;;;;13.32;5.18;;;14.30;99.90;;;;;;6374021;27;20059;-90
2022/06/13 00:23:05;;;;;;;15.85;5.55;;;14.30;99.90;;;;;;6346309;28;20052;-89
2022/06/13 00:26:07;;;;;;;12.85;5.78;;;14.20;99.90;;;;;;6350149;27;20046;-87
2022/06/13 00:29:09;;;;;;;17.05;6.03;;;14.20;99.90;;;;;;6343059;27;20562;-89
2022/06/13 00:32:13;;;;;;;14.20;5.72;;;14.20;99.90;;;;;;6367155;27;20148;-90
2022/06/13 00:35:15;;;;;;;12.52;5.50;;;14.20;99.90;;;;;;6361800;27;20183;-86
2022/06/13 00:38:17;;;;;;;15.20;5.60;;;14.10;99.90;;;;;;6398675;27;20092;-84
2022/06/13 00:41:25;;;;;;;14.68;6.30;;;14.10;99.90;;;;;;6399197;27;20419;-84
2022/06/13 00:44:29;;;;;;;18.73;6.03;;;14.00;99.90;;;;;;6378370;27;20056;-84
2022/06/13 00:47:33;;;;;;;15.43;6.30;;;13.90;99.90;;;;;;6352359;27;20046;-77
2022/06/13 00:50:36;;;;;;;;;;;13.90;99.90;;;;;;6372271;27;20047;-89
2022/06/13 00:53:38;;;;;;;16.63;6.05;;;13.90;99.90;;;;;;6351657;27;20403;-89
2022/06/13 00:56:40;;;;;;;18.63;6.07;;;13.90;99.90;;;;;;6372081;27;20541;-88
2022/06/13 00:59:44;;;;;;;12.38;5.45;;;13.90;99.90;;;;;;6379953;27;20043;-89
2022/06/13 01:02:50;;;;;;;18.77;5.85;;;13.90;99.90;;;;;;6367489;27;20040;-86
2022/06/13 01:05:55;;;;;;;11.45;5.22;;;13.90;99.90;;;;;;6362608;27;20063;-91
2022/06/13 01:08:57;;;;;;;14.25;5.55;;;13.90;99.90;;;;;;6349624;27;20051;-89
2022/06/13 01:11:58;;;;;;;15.73;6.13;;;13.80;99.90;;;;;;6357081;27;20053;-90
2022/06/13 01:15:09;;;;;;;16.35;6.05;;;13.90;99.90;;;;;;6372167;27;20043;-89
2022/06/13 01:18:29;;;;;;;13.38;5.70;;;13.90;99.90;;;;;;6371029;27;20495;-89
2022/06/13 01:21:40;;;;;;;11.98;5.70;;;13.90;99.90;;;;;;6359699;27;20053;-90
2022/06/13 01:25:11;;;;;;;18.33;5.32;;;13.90;99.90;;;;;;6366552;27;20043;-88
2022/06/13 01:28:43;;;;;;;18.55;6.60;;;13.90;99.90;;;;;;6344201;28;20063;-89
2022/06/13 01:31:50;;;;;;;15.32;6.18;;;14.00;99.90;;;;;;6345637;27;20055;-88
2022/06/13 01:35:11;;;;;;;18.40;6.13;;;13.90;99.90;;;;;;6365575;27;20058;-88
2022/06/13 01:38:27;;;;;;;13.88;5.53;;;13.90;99.90;;;;;;6376108;27;20039;-89
2022/06/13 01:41:34;;;;;;;12.93;6.03;;;13.90;99.90;;;;;;6374233;27;20051;-89
2022/06/13 01:44:47;;;;;;;14.23;5.63;;;13.90;99.90;;;;;;6375587;27;20478;-88
2022/06/13 01:47:57;;;;;;;19.13;6.18;;;13.90;99.90;;;;;;6353337;27;20048;-87
2022/06/13 01:51:08;;;;;;;16.60;5.88;;;13.80;99.90;;;;;;6363940;27;20079;-88
2022/06/13 01:54:21;;;;;;;13.88;5.57;;;13.90;99.90;;;;;;6358455;27;20049;-88
2022/06/13 01:57:32;;;;;;;14.13;6.00;;;13.90;99.90;;;;;;6371763;27;20043;-87
2022/06/13 02:00:35;;;;;;;17.10;6.03;;;13.90;99.90;;;;;;6333276;27;20481;-87
2022/06/13 02:03:43;;;;;;;13.80;5.93;;;13.80;99.90;;;;;;6384169;27;20415;-87
2022/06/13 02:06:50;;;;;;;18.90;5.95;;;13.80;99.90;;;;;;6355720;27;20057;-87
2022/06/13 02:09:57;;;;;;;18.52;6.63;;;13.80;99.90;;;;;;6386124;27;20055;-87
2022/06/13 02:13:04;;;;;;;17.77;5.40;;;13.80;99.90;;;;;;6384788;27;20049;-88
2022/06/13 02:16:12;;;;;;;12.55;5.40;;;13.70;99.90;;;;;;6356922;27;20042;-89
2022/06/13 02:19:20;;;;;;;16.98;6.53;;;13.70;99.90;;;;;;6378690;27;20050;-91
2022/06/13 02:22:27;;;;;;;17.38;6.60;;;13.70;99.90;;;;;;6368972;27;20059;-90
2022/06/13 02:25:34;;;;;;;19.08;6.40;;;13.70;99.90;;;;;;6360235;27;20050;-90
2022/06/13 02:28:46;;;;;;;19.10;6.68;;;13.70;99.90;;;;;;6359305;27;20070;-90
2022/06/13 02:31:52;;;;;;;15.82;6.55;;;13.70;99.90;;;;;;6379897;27;20053;-90
2022/06/13 02:35:02;;;;;;;19.80;6.63;;;13.80;99.90;;;;;;6396462;27;20051;-89
2022/06/13 02:38:07;;;;;;;14.07;5.82;;;13.80;99.90;;;;;;6376837;27;20047;-89
2022/06/13 02:41:13;;;;;;;13.85;6.00;;;13.80;99.90;;;;;;6369352;27;20053;-88
2022/06/13 02:44:24;;;;;;;19.23;7.18;;;13.80;99.90;;;;;;6369823;27;20043;-90
2022/06/13 02:47:33;;;;;;;15.48;5.80;;;13.80;99.90;;;;;;6358203;27;20058;-90
2022/06/13 02:50:44;;;;;;;15.13;5.63;;;13.80;99.90;;;;;;6360774;27;20049;-88
2022/06/13 02:53:51;;;;;;;20.08;6.78;;;13.90;99.90;;;;;;6391731;27;20047;-87
2022/06/13 03:00:34;;;;;;;17.48;6.43;;;13.90;99.90;;;;;;6373004;27;20047;-87
2022/06/13 03:03:46;;;;;;;21.83;7.43;;;13.90;99.90;;;;;;6375472;27;20050;-87
2022/06/13 03:06:59;;;;;;;18.35;6.15;;;14.00;99.90;;;;;;6332559;28;20054;-87
2022/06/13 03:10:10;;;;;;;17.40;5.90;;;13.90;99.90;;;;;;6378939;27;20054;-86
2022/06/13 03:13:24;;;;;;;21.73;6.97;;;13.90;99.90;;;;;;6377707;27;20051;-87
2022/06/13 03:16:34;;;;;;;22.17;7.13;;;14.00;99.90;;;;;;6378128;27;20130;-86
2022/06/13 03:19:42;;;;;;;15.93;6.63;;;14.00;99.90;;;;;;6359078;27;20407;-86
2022/06/13 03:22:50;;;;;;;19.27;7.10;;;13.90;99.90;;;;;;6386042;27;20046;-85
2022/06/13 03:25:56;;;;;;;19.95;6.90;;;14.00;99.90;;;;;;6383025;27;20050;-85
2022/06/13 03:29:05;;;;;;;21.83;7.60;;;14.00;99.90;;;;;;6390513;27;20043;-86
2022/06/13 03:32:09;;;;;;;16.95;6.97;;;13.90;99.90;;;;;;6352407;27;20047;-86
2022/06/13 03:35:16;;;;;;;23.52;7.40;;;13.90;99.90;;;;;;6368002;27;20141;-86
2022/06/13 03:38:26;;;;;;;18.75;6.63;;;13.90;99.90;;;;;;6349126;28;20051;-87
2022/06/13 03:41:33;;;;;;;16.48;6.80;;;13.90;99.90;;;;;;6345960;28;20055;-86
2022/06/13 03:44:41;;;;;;;20.13;7.57;;;14.00;99.90;;;;;;6362301;27;20526;-86
2022/06/13 03:47:48;;;;;;;15.23;6.30;;;14.00;99.90;;;;;;6374926;27;20051;-85
2022/06/13 03:50:56;;;;;;;22.17;7.57;;;14.00;99.90;;;;;;6365348;27;20050;-86
2022/06/13 03:54:03;;;;;;;17.73;7.05;;;14.00;99.90;;;;;;6364890;27;20043;-86
2022/06/13 03:57:13;;;;;;;15.75;6.75;;;14.10;99.90;;;;;;6373835;27;20499;-85
2022/06/13 04:00:20;;;;;;;21.65;8.15;;;14.10;99.90;;;;;;6375032;27;20052;-88
2022/06/13 04:03:24;;;;;;;22.92;7.32;;;14.20;99.90;;;;;;6350979;27;20463;-86
2022/06/13 04:06:38;;;;;;;19.77;8.30;;;14.20;99.90;;;;;;6373148;27;20047;-86
2022/06/13 04:09:45;;;;;;;17.25;7.07;;;14.20;99.90;;;;;;6341926;27;20054;-86
2022/06/13 04:13:07;;;;;;;17.33;7.10;;;14.20;99.90;;;;;;6365053;27;20163;-86
2022/06/13 04:16:23;;;;;;;14.27;5.53;;;14.30;99.90;;;;;;6365256;27;20047;-87
2022/06/13 04:19:39;;;;;;;16.63;6.43;;;14.40;99.90;;;;;;6368183;27;20053;-89
2022/06/13 04:22:49;;;;;;;20.58;7.30;;;14.40;99.90;;;;;;6350416;27;20508;-88
2022/06/13 04:25:59;;;;;;;16.80;6.07;;;14.30;99.90;;;;;;6370113;27;20492;-88
2022/06/13 04:29:08;;;;;;;16.45;5.75;;;14.30;99.90;;;;;;6347196;28;20044;-89
2022/06/13 04:32:14;;;;;;;18.42;7.07;;;14.30;99.90;;;;;;6373327;27;20047;-89
2022/06/13 04:35:17;;;;;;;16.85;5.70;;;14.40;99.90;;;;;;6372326;27;20051;-88
2022/06/13 04:38:21;;;;;;;18.50;6.25;;;14.50;99.90;;;;;;6373958;27;20069;-89
2022/06/13 04:41:29;;;;;;;15.63;6.43;;;14.60;99.90;;;;;;6356114;27;20408;-89
2022/06/13 04:44:34;;;;;;;15.68;6.70;;;14.50;99.90;;;;;;6347040;27;20058;-89
2022/06/13 04:47:37;;;;;;;13.52;5.13;;;14.60;99.90;;;;;;6341884;27;20048;-89
2022/06/13 04:50:42;;;;;;;;;;;14.60;99.90;;;;;;6348346;27;20046;-89
2022/06/13 04:53:52;;;;;;;15.25;5.57;;;14.70;99.90;;;;;;6366395;27;19966;-88
2022/06/13 04:56:59;;;;;;;15.50;6.28;;;14.70;99.90;;;;;;6354227;27;20043;-88
2022/06/13 05:00:04;;;;;;;14.88;6.13;;;14.80;99.90;;;;;;6365844;27;20048;-89
2022/06/13 05:03:21;;;;;;;14.45;6.07;;;14.80;99.90;;;;;;6355822;27;20054;-88
2022/06/13 05:06:31;;;;;;;16.83;6.03;;;15.00;99.90;;;;;;6368138;27;20055;-88
2022/06/13 05:09:37;;;;;;;13.27;4.22;;;15.20;99.90;;;;;;6371514;27;20115;-88
2022/06/13 05:12:44;;;;;;;11.13;4.38;;;15.30;99.90;;;;;;6346077;28;20560;-89
2022/06/13 05:15:53;;;;;;;12.85;4.30;;;15.70;99.90;;;;;;6341449;27;20047;-90
2022/06/13 05:19:21;;;;;;;11.90;3.45;;;16.20;99.90;;;;;;6345060;28;20078;-86
2022/06/13 05:22:41;;;;;;;15.88;4.50;;;16.40;99.90;;;;;;6343189;27;20027;-89
2022/06/13 05:25:45;;;;;;;8.43;3.28;;;16.50;99.90;;;;;;6336346;28;20063;-88
2022/06/13 05:28:48;;;;;;;;;;;16.50;99.90;;;;;;6347619;28;20047;-88
2022/06/13 05:31:50;;;;;;;14.30;4.22;;;16.50;99.90;;;;;;6342222;28;20317;-88
2022/06/13 05:34:54;;;;;;;7.55;3.17;;;16.30;99.90;;;;;;6356818;27;20404;-88
2022/06/13 05:37:59;;;;;;;8.88;3.38;;;16.40;99.90;;;;;;6361620;27;20164;-87
2022/06/13 05:41:01;;;;;;;9.68;3.20;;;16.60;99.90;;;;;;6354430;27;20084;-86
2022/06/13 05:44:06;;;;;;;10.73;3.20;;;16.70;99.90;;;;;;6373798;27;20086;-87
2022/06/13 05:47:13;;;;;;;6.45;2.65;;;16.60;99.90;;;;;;6361968;27;20054;-88
2022/06/13 05:50:17;;;;;;;7.63;2.70;;;16.50;99.90;;;;;;6371423;27;20507;-88
2022/06/13 05:53:21;;;;;;;;;;;16.40;99.90;;;;;;6373986;27;20050;-88
2022/06/13 05:56:24;;;;;;;12.45;2.67;;;16.30;99.90;;;;;;6380197;27;19919;-89
2022/06/13 05:59:27;;;;;;;13.80;2.60;;;16.30;99.90;;;;;;6362953;27;20202;-78
2022/06/13 06:02:29;;;;;;;7.88;2.50;;;16.20;99.90;;;;;;6362916;27;20081;-82
2022/06/13 06:05:32;;;;;;;20.80;3.33;;;16.10;99.90;;;;;;6374116;27;20049;-89
2022/06/13 06:08:36;;;;;;;9.75;2.75;;;15.90;99.90;;;;;;6352069;28;20169;-86
2022/06/13 06:11:38;;;;;;;8.15;2.42;;;15.40;99.90;;;;;;6363196;27;20140;-81
2022/06/13 06:14:42;;;;;;;9.55;2.72;;;15.10;99.90;;;;;;6360169;27;20242;-77
2022/06/13 06:17:44;;;;;;;;;;;15.50;99.90;;;;;;6361850;27;20046;-76
2022/06/13 06:20:46;;;;;;;7.10;1.67;;;16.30;99.90;;;;;;6359631;28;19920;-76
2022/06/13 06:23:48;;;;;;;7.13;2.45;;;16.80;99.90;;;;;;6367835;28;20506;-76
2022/06/13 06:26:50;;;;;;;6.53;2.05;;;17.70;99.90;;;;;;6368904;28;20620;-76
2022/06/13 06:29:54;;;;;;;4.03;2.05;;;18.30;99.90;;;;;;6370058;28;20040;-77
2022/06/13 06:32:57;;;;;;;4.32;1.65;;;18.70;99.90;;;;;;6343701;28;20059;-77
2022/06/13 06:36:00;;;;;;;8.07;1.95;;;19.30;99.90;;;;;;6360349;27;20059;-77
2022/06/13 06:39:02;;;;;;;5.30;1.73;;;19.40;99.90;;;;;;6363765;27;20047;-77
2022/06/13 06:42:04;;;;;;;5.35;1.60;;;19.70;99.90;;;;;;6352920;28;20130;-77
2022/06/13 06:45:09;;;;;;;7.93;1.77;;;20.00;99.90;;;;;;6352922;28;20179;-77
2022/06/13 06:48:16;;;;;;;6.00;1.65;;;20.20;99.90;;;;;;6370355;28;20058;-77
2022/06/13 06:51:18;;;;;;;4.75;1.33;;;19.00;99.90;;;;;;6363015;27;20258;-77
2022/06/13 07:01:02;;;;;;;8.18;1.45;;;19.50;99.90;;;;;;6366537;28;20055;-77
2022/06/13 07:04:07;;;;;;;3.65;0.90;;;19.50;99.90;;;;;;6357131;27;20051;-78
2022/06/13 07:07:09;;;;;;;7.40;1.48;;;20.00;99.90;;;;;;6370727;27;20053;-77
2022/06/13 07:10:13;;;;;;;8.35;1.40;;;19.30;99.90;;;;;;6371293;27;20043;-77
2022/06/13 07:13:16;;;;;;;5.82;1.17;;;18.40;99.90;;;;;;6358268;27;20392;-77
2022/06/13 07:16:19;;;;;;;4.63;0.80;;;18.40;99.90;;;;;;6373694;27;20383;-77
2022/06/13 07:19:21;;;;;;;4.35;0.98;;;17.70;99.90;;;;;;6368509;27;20043;-77
2022/06/13 07:22:25;;;;;;;2.95;0.63;;;16.60;99.90;;;;;;6373238;27;20502;-77
2022/06/13 07:25:31;;;;;;;4.05;0.77;;;15.90;99.90;;;;;;6361519;27;20468;-75
2022/06/13 07:28:33;;;;;;;3.47;1.10;;;16.30;99.90;;;;;;6355894;27;20678;-77
2022/06/13 07:31:38;;;;;;;3.22;0.90;;;16.50;99.90;;;;;;6352076;27;20039;-76
2022/06/13 07:34:41;;;;;;;6.25;1.40;;;17.10;99.90;;;;;;6332627;28;20052;-77
2022/06/13 07:41:04;;;;;;;5.40;1.00;;;17.70;99.90;;;;;;6324077;28;20475;-77
2022/06/13 07:44:07;;;;;;;3.40;0.88;;;18.20;99.90;;;;;;6326125;28;20205;-77
2022/06/13 07:47:23;;;;;;;;;;;18.50;99.90;;;;;;6346491;27;20040;-78
2022/06/13 07:50:27;;;;;;;2.70;0.45;;;18.80;99.90;;;;;;6330450;28;20319;-78
2022/06/13 07:53:29;;;;;;;2.05;0.57;;;19.20;99.90;;;;;;6366737;27;20091;-78
2022/06/13 07:56:32;;;;;;;3.25;0.80;;;19.60;99.90;;;;;;6374772;27;20126;-78
2022/06/13 07:59:35;;;;;;;2.42;0.60;;;20.00;99.90;;;;;;6374539;27;20039;-78
2022/06/13 08:02:40;;;;;;;3.40;0.80;;;20.30;99.90;;;;;;6373228;27;20089;-78
2022/06/13 08:05:42;;;;;;;3.03;0.60;;;20.30;99.90;;;;;;6369580;27;20060;-78
2022/06/13 08:08:45;;;;;;;1.85;0.60;;;20.40;99.90;;;;;;6349090;27;20051;-78
2022/06/13 08:11:50;;;;;;;;;;;19.90;99.90;;;;;;6340472;28;20141;-77
2022/06/13 08:14:52;;;;;;;4.57;0.80;;;20.10;99.90;;;;;;6323510;28;19920;-75
2022/06/13 08:17:56;;;;;;;2.65;0.73;;;20.20;99.90;;;;;;6339852;28;20051;-76
2022/06/13 08:20:59;;;;;;;6.00;1.25;;;20.20;99.90;;;;;;6353066;27;20047;-78
2022/06/13 08:24:00;;;;;;;5.20;1.10;;;20.30;99.90;;;;;;6359452;27;20051;-78
2022/06/13 08:27:03;;;;;;;6.78;1.08;;;20.20;99.90;;;;;;6349755;27;20047;-78
2022/06/13 08:30:06;;;;;;;3.05;0.70;;;19.30;99.90;;;;;;6372703;27;20515;-77
2022/06/13 08:33:09;;;;;;;3.08;0.80;;;19.40;99.90;;;;;;6372427;27;20055;-77
2022/06/13 08:36:12;;;;;;;4.80;1.02;;;19.50;99.90;;;;;;6370698;27;20100;-78
2022/06/13 08:39:15;;;;;;;4.22;1.20;;;19.40;99.90;;;;;;6373293;27;20386;-78
2022/06/13 08:42:24;;;;;;;3.13;1.00;;;19.40;99.90;;;;;;6373224;27;20027;-78
2022/06/13 08:45:31;;;;;;;8.05;1.48;;;18.80;99.90;;;;;;6361149;27;20058;-78
2022/06/13 08:48:44;;;;;;;3.17;0.63;;;17.80;99.90;;;;;;6353341;27;20403;-77
2022/06/13 08:51:49;;;;;;;3.10;0.70;;;18.00;99.90;;;;;;6373685;27;20043;-78
2022/06/13 08:55:07;;;;;;;4.63;0.95;;;18.60;99.90;;;;;;6353912;27;20047;-78
2022/06/13 08:58:17;;;;;;;4.00;1.05;;;18.60;99.90;;;;;;6369974;27;20051;-78
2022/06/13 09:01:24;;;;;;;7.85;1.15;;;19.00;99.90;;;;;;6371499;27;20122;-77
2022/06/13 09:04:32;;;;;;;3.83;0.93;;;18.80;99.90;;;;;;6371349;27;20051;-78
2022/06/13 09:07:37;;;;;;;4.38;1.00;;;19.20;99.50;;;;;;6379586;27;20422;-78
2022/06/13 09:10:46;;;;;;;4.68;0.90;;;19.50;99.90;;;;;;6398517;27;20057;-76
2022/06/13 09:13:53;;;;;;;7.50;1.00;;;19.60;99.60;;;;;;6398172;27;20046;-78
2022/06/13 09:17:04;;;;;;;3.47;0.85;;;19.00;99.10;;;;;;6377138;27;20073;-77
2022/06/13 09:20:16;;;;;;;5.65;1.20;;;18.60;98.90;;;;;;6349960;27;20058;-79
2022/06/13 09:23:26;;;;;;;3.80;0.70;;;18.10;99.90;;;;;;6351735;27;20415;-79
2022/06/13 09:26:35;;;;;;;3.17;0.77;;;18.80;99.90;;;;;;6366010;27;20077;-75
2022/06/13 09:29:43;;;;;;;5.97;1.35;;;19.50;99.90;;;;;;6361974;27;20136;-76
2022/06/13 09:32:49;;;;;;;8.02;1.20;;;19.50;98.10;;;;;;6348381;27;20057;-76
2022/06/13 09:35:58;;;;;;;6.70;1.00;;;18.60;98.10;;;;;;6347448;27;20051;-76
2022/06/13 09:39:03;;;;;;;3.08;0.90;;;18.30;98.90;;;;;;6371682;27;20507;-76
2022/06/13 09:42:43;;;;;;;4.13;0.95;;;18.30;99.80;;;;;;6372885;27;20084;-76
2022/06/13 09:45:56;;;;;;;4.07;0.77;;;19.20;99.90;;;;;;6345609;27;20092;-76
2022/06/13 09:49:08;;;;;;;5.07;0.95;;;18.70;99.30;;;;;;6371499;27;20055;-76
2022/06/13 09:52:19;;;;;;;3.40;0.80;;;19.00;99.50;;;;;;6364060;27;20047;-76
2022/06/13 09:55:25;;;;;;;5.05;0.98;;;19.30;99.90;;;;;;6368431;27;20046;-76
2022/06/13 09:58:47;;;;;;;3.38;0.95;;;19.80;99.90;;;;;;6370420;27;20054;-76
2022/06/13 10:01:58;;;;;;;8.25;1.27;;;19.80;99.00;;;;;;6355989;27;20868;-76
2022/06/13 10:05:13;;;;;;;3.55;1.05;;;19.20;97.10;;;;;;6367506;27;20042;-82
2022/06/13 10:08:34;;;;;;;3.97;1.00;;;19.20;98.80;;;;;;6346183;28;20482;-80
2022/06/13 10:11:48;;;;;;;8.13;1.67;;;19.10;98.00;;;;;;6367092;28;20049;-80
2022/06/13 10:15:12;;;;;;;4.63;1.30;;;19.00;99.20;;;;;;6370257;28;20051;-80
2022/06/13 10:18:23;;;;;;;;;;;19.20;99.80;;;;;;6353431;28;20490;-81
2022/06/13 10:21:32;;;;;;;5.22;0.80;;;19.60;99.40;;;;;;6367441;27;19919;-83
2022/06/13 10:24:55;;;;;;;2.95;0.90;;;19.70;99.50;;;;;;6358789;27;20491;-82
2022/06/13 10:28:07;;;;;;;8.55;1.25;;;20.00;99.60;;;;;;6375954;27;20107;-82
2022/06/13 10:31:18;;;;;;;6.93;0.93;;;19.60;98.20;;;;;;6367910;27;20039;-83
2022/06/13 10:34:29;;;;;;;5.45;1.00;;;19.50;98.90;;;;;;6369776;28;20180;-81
2022/06/13 10:37:41;;;;;;;4.82;1.05;;;19.30;99.50;;;;;;6369798;27;20861;-81
2022/06/13 10:40:45;;;;;;;7.97;1.38;;;19.20;98.10;;;;;;6358126;27;20419;-80
2022/06/13 10:43:47;;;;;;;5.22;1.20;;;19.30;98.40;;;;;;6356448;27;20071;-81
2022/06/13 10:46:51;;;;;;;8.02;1.15;;;18.90;98.30;;;;;;6372857;27;20066;-82
2022/06/13 10:49:58;;;;;;;8.35;1.45;;;18.70;98.10;;;;;;6373174;27;20185;-82
2022/06/13 10:53:06;;;;;;;9.10;1.63;;;18.70;98.50;;;;;;6381542;27;20087;-82
2022/06/13 10:56:14;;;;;;;7.22;1.88;;;18.70;98.40;;;;;;6397316;27;20051;-82
2022/06/13 10:59:25;;;;;;;7.97;1.77;;;18.80;99.30;;;;;;6361589;27;20043;-84
2022/06/13 11:02:27;;;;;;;12.13;1.73;;;19.00;99.20;;;;;;6371307;27;20050;-83
2022/06/13 11:05:29;;;;;;;9.73;1.98;;;19.00;99.10;;;;;;6362304;27;20050;-84
2022/06/13 11:08:32;;;;;;;7.05;1.38;;;18.90;98.40;;;;;;6374724;27;20047;-83
2022/06/13 11:11:40;;;;;;;9.13;1.75;;;18.80;98.50;;;;;;6372863;27;20043;-83
2022/06/13 11:24:55;;;;;;;5.57;1.48;;;18.80;98.30;;;;;;6369955;27;20479;-85
2022/06/13 11:28:09;;;;;;;10.05;1.75;;;18.80;98.70;;;;;;6389928;27;20053;-83
2022/06/13 11:31:18;;;;;;;10.85;2.30;;;18.80;99.00;;;;;;6388420;27;20039;-82
2022/06/13 11:34:32;;;;;;;7.18;1.70;;;18.60;99.50;;;;;;6375748;27;20122;-82
2022/06/13 11:37:34;;;;;;;7.47;2.00;;;18.60;99.40;;;;;;6376704;27;20050;-82
2022/06/13 11:40:37;;;;;;;7.10;1.65;;;18.70;99.60;;;;;;6376680;27;20054;-82
2022/06/13 11:43:44;;;;;;;9.13;2.30;;;18.70;98.10;;;;;;6372734;27;20081;-81
2022/06/13 11:46:55;;;;;;;11.68;2.30;;;18.60;99.00;;;;;;6358627;27;20456;-81
2022/06/13 11:49:58;;;;;;;12.50;2.20;;;18.60;99.90;;;;;;6379748;27;20047;-81
2022/06/13 11:56:27;;;;;;;9.30;2.28;;;18.90;99.50;;;;;;6400388;27;20491;-82
2022/06/13 11:59:33;;;;;;;8.40;1.95;;;18.90;99.30;;;;;;6380201;27;20120;-82
2022/06/13 12:02:53;;;;;;;8.43;1.80;;;18.90;99.60;;;;;;6388376;27;20045;-82
2022/06/13 12:05:59;;;;;;;12.40;1.95;;;19.20;99.40;;;;;;6383967;27;20507;-81
2022/06/13 12:09:04;;;;;;;8.32;1.80;;;19.40;98.70;;;;;;6373310;27;20043;-82
2022/06/13 12:12:08;;;;;;;8.27;1.45;;;19.40;98.70;;;;;;6373890;27;20091;-82
2022/06/13 12:15:14;;;;;;;7.15;1.42;;;19.50;99.30;;;;;;6368557;27;20043;-81
2022/06/13 12:18:22;;;;;;;7.53;1.33;;;19.30;97.30;;;;;;6399519;27;20047;-82
2022/06/13 12:21:30;;;;;;;9.75;1.30;;;18.90;98.00;;;;;;6392190;27;20141;-82
2022/06/13 12:24:44;;;;;;;5.78;1.40;;;18.80;97.80;;;;;;6377430;27;20043;-82
2022/06/13 12:27:54;;;;;;;8.63;1.70;;;18.90;98.80;;;;;;6393065;27;20051;-82
2022/06/13 12:31:03;;;;;;;6.03;1.23;;;18.90;98.10;;;;;;6364819;27;20130;-83
2022/06/13 12:34:18;;;;;;;5.22;1.05;;;18.80;98.50;;;;;;6374268;27;20485;-82
2022/06/13 12:37:39;;;;;;;5.13;1.23;;;18.70;98.70;;;;;;6379864;27;20044;-83
2022/06/13 12:40:56;;;;;;;5.53;1.80;;;18.80;98.60;;;;;;6348541;27;20059;-83
2022/06/13 12:44:24;;;;;;;5.28;1.40;;;18.90;98.10;;;;;;6372579;27;20055;-84
2022/06/13 12:47:52;;;;;;;3.65;0.75;;;19.00;98.20;;;;;;6383202;27;20063;-84
2022/06/13 12:51:07;;;;;;;2.75;0.77;;;18.80;96.80;;;;;;6373445;27;20526;-83
2022/06/13 12:54:35;;;;;;;7.97;1.05;;;18.70;96.90;;;;;;6384874;27;20069;-83
2022/06/13 12:57:58;;;;;;;5.15;0.90;;;18.60;97.10;;;;;;6353882;27;20691;-82
2022/06/13 13:01:07;;;;;;;4.63;0.77;;;18.60;97.30;;;;;;6335633;27;20500;-83
2022/06/13 13:04:37;;;;;;;5.60;1.20;;;18.70;97.90;;;;;;6369781;27;20058;-83
2022/06/13 13:07:48;;;;;;;7.30;1.20;;;19.00;97.90;;;;;;6371409;27;20047;-84
2022/06/13 13:11:20;;;;;;;6.13;1.27;;;19.30;97.50;;;;;;6370685;27;20047;-84
2022/06/13 13:14:39;;;;;;;6.32;1.17;;;19.50;96.70;;;;;;6356366;27;20092;-83
2022/06/13 13:18:01;;;;;;;9.23;1.35;;;19.30;97.10;;;;;;6345700;27;20049;-83
2022/06/13 13:21:18;;;;;;;5.25;1.23;;;19.20;96.90;;;;;;6378333;27;20057;-83
2022/06/13 13:24:45;;;;;;;6.55;1.10;;;19.10;97.20;;;;;;6369308;27;20053;-83
2022/06/13 13:27:55;;;;;;;3.50;0.90;;;19.00;96.80;;;;;;6349184;27;20042;-83
2022/06/13 13:31:02;;;;;;;6.32;0.90;;;18.90;97.40;;;;;;6350436;27;20057;-82
2022/06/13 13:34:25;;;;;;;4.80;0.93;;;18.90;97.30;;;;;;6353716;27;20047;-82
2022/06/13 13:37:33;;;;;;;6.70;0.90;;;18.90;97.20;;;;;;6378362;27;20376;-83
2022/06/13 13:40:42;;;;;;;6.13;0.90;;;18.70;97.00;;;;;;6375809;27;20050;-83
2022/06/13 13:43:53;;;;;;;4.22;1.15;;;18.80;96.90;;;;;;6373482;27;20047;-84
2022/06/13 13:47:01;;;;;;;6.32;1.20;;;18.90;97.40;;;;;;6385820;27;20164;-84
2022/06/13 13:50:07;;;;;;;6.47;1.00;;;19.00;97.40;;;;;;6372574;27;20086;-84
2022/06/13 13:53:13;;;;;;;4.07;1.15;;;18.90;97.20;;;;;;6384845;27;20108;-84
2022/06/13 13:56:25;;;;;;;5.30;1.38;;;18.70;97.90;;;;;;6375247;27;20035;-83
2022/06/13 13:59:30;;;;;;;7.80;1.25;;;18.70;97.60;;;;;;6390932;27;20128;-83
2022/06/13 14:02:45;;;;;;;6.22;1.27;;;18.50;97.40;;;;;;6387007;27;20528;-84
2022/06/13 14:05:54;;;;;;;6.22;1.58;;;18.30;98.00;;;;;;6389093;27;20513;-84
2022/06/13 14:09:01;;;;;;;6.10;1.38;;;18.40;97.60;;;;;;6389338;27;20111;-84
2022/06/13 14:12:08;;;;;;;6.95;1.20;;;18.50;97.60;;;;;;6373825;27;20047;-85
2022/06/13 14:15:18;;;;;;;6.90;1.17;;;18.60;97.70;;;;;;6377918;27;20137;-83
2022/06/13 14:18:27;;;;;;;4.65;1.08;;;18.60;97.30;;;;;;6400801;27;20043;-84
2022/06/13 14:21:58;;;;;;;5.40;1.30;;;18.60;97.40;;;;;;6367839;27;20047;-83
2022/06/13 14:25:19;;;;;;;6.22;1.67;;;18.80;97.80;;;;;;6358743;27;20145;-84
2022/06/13 14:28:22;;;;;;;5.47;1.55;;;19.00;97.90;;;;;;6376791;27;20043;-84
2022/06/13 14:31:24;;;;;;;;;;;19.00;98.10;;;;;;6375123;27;20051;-82
2022/06/13 14:38:24;;;;;;;7.95;1.13;;;19.30;97.30;;;;;;6352885;27;20799;-82
2022/06/13 14:41:40;;;;;;;6.35;1.70;;;19.20;96.60;;;;;;6380009;27;20043;-82
2022/06/13 14:44:50;;;;;;;7.85;1.80;;;19.30;97.70;;;;;;6380239;27;20470;-82
2022/06/13 14:48:30;;;;;;;7.43;1.50;;;19.40;97.00;;;;;;6360267;27;20407;-83
2022/06/13 14:51:53;;;;;;;7.18;1.30;;;19.30;97.70;;;;;;6382249;27;20053;-82
2022/06/13 14:55:18;;;;;;;6.75;1.40;;;19.30;96.70;;;;;;6370935;27;20051;-82
2022/06/13 14:58:59;;;;;;;6.80;1.30;;;19.30;97.20;;;;;;6374248;27;20050;-82
2022/06/13 15:02:26;;;;;;;6.88;1.10;;;19.30;96.90;;;;;;6375412;27;20059;-82
2022/06/13 15:05:57;;;;;;;5.85;0.98;;;19.20;96.60;;;;;;6365270;27;20047;-82
2022/06/13 15:09:20;;;;;;;6.90;1.30;;;19.20;96.30;;;;;;6375788;27;20039;-82
2022/06/13 15:12:28;;;;;;;10.30;1.85;;;18.90;95.60;;;;;;6374831;27;20488;-82
2022/06/13 15:15:34;;;;;;;9.25;1.50;;;18.50;96.80;;;;;;6358315;27;20047;-82
2022/06/13 15:18:39;;;;;;;5.97;1.23;;;18.50;97.40;;;;;;6374356;27;20058;-82
2022/06/13 15:21:46;;;;;;;5.68;1.27;;;18.60;97.70;;;;;;6380835;27;20050;-81
2022/06/13 15:24:52;;;;;;;7.13;1.40;;;18.70;97.40;;;;;;6388670;27;20039;-82
2022/06/13 15:28:00;;;;;;;5.93;1.48;;;18.70;96.90;;;;;;6374587;27;20119;-82
2022/06/13 15:31:08;;;;;;;5.40;2.10;;;18.50;97.40;;;;;;6352941;27;20043;-81
2022/06/13 15:34:12;;;;;;;6.68;1.40;;;18.40;97.50;;;;;;6368504;27;20061;-79
2022/06/13 15:37:14;;;;;;;6.10;1.20;;;18.40;97.80;;;;;;6360669;27;20052;-81
2022/06/13 15:40:24;;;;;;;5.90;1.33;;;18.60;97.00;;;;;;6361501;27;20051;-82
2022/06/13 15:43:40;;;;;;;5.95;1.15;;;18.60;97.00;;;;;;6373918;27;20082;-82
2022/06/13 15:46:48;;;;;;;9.75;1.50;;;18.50;97.50;;;;;;6372930;27;20043;-81
2022/06/13 15:49:51;;;;;;;6.75;1.33;;;18.30;97.20;;;;;;6350112;27;20506;-82
2022/06/13 15:52:56;;;;;;;8.75;1.70;;;18.10;97.70;;;;;;6355726;27;20387;-83
2022/06/13 15:55:58;;;;;;;4.13;1.20;;;18.00;98.00;;;;;;6382801;27;20054;-82
2022/06/13 15:59:03;;;;;;;9.63;1.50;;;18.20;97.90;;;;;;6379347;27;20062;-83
2022/06/13 16:02:05;;;;;;;5.13;1.48;;;18.40;97.20;;;;;;6389411;27;20519;-82
2022/06/13 16:05:12;;;;;;;8.30;1.40;;;18.50;97.70;;;;;;6374657;27;20091;-83
2022/06/13 16:08:18;;;;;;;4.25;0.80;;;18.60;97.30;;;;;;6378276;27;20106;-81
2022/06/13 16:11:27;;;;;;;4.65;1.17;;;18.60;95.90;;;;;;6394217;27;20078;-83
2022/06/13 16:14:32;;;;;;;5.20;1.48;;;18.50;95.90;;;;;;6373417;27;20055;-83
2022/06/13 16:17:38;;;;;;;4.50;1.23;;;18.60;96.80;;;;;;6378953;27;20398;-83
2022/06/13 16:20:43;;;;;;;4.82;0.90;;;18.50;97.00;;;;;;6386946;27;20047;-82
2022/06/13 16:23:48;;;;;;;6.40;1.23;;;18.40;97.00;;;;;;6387590;27;20038;-81
2022/06/13 16:26:51;;;;;;;7.82;1.42;;;18.40;97.10;;;;;;6391739;27;20081;-83
2022/06/13 16:29:59;;;;;;;6.20;0.85;;;18.40;96.60;;;;;;6361554;27;20487;-81
2022/06/13 16:33:02;;;;;;;4.35;1.10;;;18.40;96.00;;;;;;6346577;28;20048;-81
2022/06/13 16:36:13;;;;;;;5.93;1.45;;;18.20;96.70;;;;;;6348653;27;20051;-81
2022/06/13 16:39:31;;;;;;;6.35;1.10;;;18.10;97.10;;;;;;6372486;27;20040;-81
2022/06/13 16:42:33;;;;;;;4.72;1.00;;;18.10;96.40;;;;;;6353963;27;20104;-82
2022/06/13 16:45:37;;;;;;;3.40;0.85;;;18.10;97.00;;;;;;6357353;27;20051;-81
2022/06/13 16:48:43;;;;;;;10.60;1.30;;;18.10;96.60;;;;;;6363462;27;20062;-84
2022/06/13 16:51:52;;;;;;;3.90;0.90;;;18.00;97.40;;;;;;6386431;27;20049;-82